sensor_id;sensor_type;location;lat;lon;timestamp;pressure;altitude;pressure_sealevel;temperature;humidity
13869;BME280;7004;48.206;16.402;2023-03-17T00:00:43;100403.69;;;3.51;46.06
13869;BME280;7004;48.206;16.402;2023-03-17T00:03:24;100407.16;;;3.52;46.51
13869;BME280;7004;48.206;16.402;2023-03-17T00:05:52;100396.84;;;3.06;47.34
13869;BME280;7004;48.206;16.402;2023-03-17T00:08:28;100404.09;;;3.33;46.68
13869;BME280;7004;48.206;16.402;2023-03-17T00:10:56;100405.44;;;3.12;46.77
13869;BME280;7004;48.206;16.402;2023-03-17T00:13:22;100411.19;;;2.87;47.99
13869;BME280;7004;48.206;16.402;2023-03-17T00:16:03;100406.53;;;3.01;47.61
13869;BME280;7004;48.206;16.402;2023-03-17T00:18:30;100394.44;;;2.97;47.31
13869;BME280;7004;48.206;16.402;2023-03-17T00:20:58;100392.31;;;3.15;47.14
13869;BME280;7004;48.206;16.402;2023-03-17T00:23:25;100386.28;;;3.11;46.92
13869;BME280;7004;48.206;16.402;2023-03-17T00:25:51;100387.94;;;3.15;46.51
13869;BME280;7004;48.206;16.402;2023-03-17T00:28:22;100392.38;;;3.12;47.00
13869;BME280;7004;48.206;16.402;2023-03-17T00:30:52;100395.44;;;2.92;48.05
13869;BME280;7004;48.206;16.402;2023-03-17T00:33:28;100393.59;;;2.95;48.17
13869;BME280;7004;48.206;16.402;2023-03-17T00:35:56;100384.81;;;2.57;48.49
13869;BME280;7004;48.206;16.402;2023-03-17T00:38:24;100383.38;;;2.84;47.68
13869;BME280;7004;48.206;16.402;2023-03-17T00:40:50;100370.50;;;2.77;47.99
13869;BME280;7004;48.206;16.402;2023-03-17T00:43:17;100371.72;;;2.60;48.66
13869;BME280;7004;48.206;16.402;2023-03-17T00:45:43;100367.53;;;2.52;48.10
13869;BME280;7004;48.206;16.402;2023-03-17T00:48:18;100372.50;;;2.64;48.62
13869;BME280;7004;48.206;16.402;2023-03-17T00:50:47;100368.84;;;2.73;48.39
13869;BME280;7004;48.206;16.402;2023-03-17T00:53:18;100369.06;;;2.62;48.78
13869;BME280;7004;48.206;16.402;2023-03-17T00:55:45;100355.03;;;2.68;48.13
13869;BME280;7004;48.206;16.402;2023-03-17T00:58:25;100347.81;;;2.80;48.38
13869;BME280;7004;48.206;16.402;2023-03-17T01:00:52;100339.38;;;2.66;48.16
13869;BME280;7004;48.206;16.402;2023-03-17T01:03:18;100334.63;;;2.85;47.93
13869;BME280;7004;48.206;16.402;2023-03-17T01:05:46;100334.16;;;2.68;48.50
13869;BME280;7004;48.206;16.402;2023-03-17T01:08:14;100328.94;;;2.68;48.83
13869;BME280;7004;48.206;16.402;2023-03-17T01:10:41;100330.44;;;2.36;50.02
13869;BME280;7004;48.206;16.402;2023-03-17T01:13:10;100317.75;;;2.17;51.60
13869;BME280;7004;48.206;16.402;2023-03-17T01:15:44;100321.69;;;2.38;50.69
13869;BME280;7004;48.206;16.402;2023-03-17T01:18:13;100311.44;;;2.29;50.09
13869;BME280;7004;48.206;16.402;2023-03-17T01:20:41;100305.84;;;2.48;50.40
13869;BME280;7004;48.206;16.402;2023-03-17T01:23:09;100303.09;;;2.55;50.54
13869;BME280;7004;48.206;16.402;2023-03-17T01:25:36;100305.69;;;2.57;50.23
13869;BME280;7004;48.206;16.402;2023-03-17T01:28:04;100296.78;;;2.66;50.39
13869;BME280;7004;48.206;16.402;2023-03-17T01:30:38;100296.00;;;2.99;48.96
13869;BME280;7004;48.206;16.402;2023-03-17T01:33:07;100298.03;;;2.87;48.72
13869;BME280;7004;48.206;16.402;2023-03-17T01:35:35;100296.88;;;2.61;49.43
13869;BME280;7004;48.206;16.402;2023-03-17T01:38:03;100284.50;;;2.69;48.88
13869;BME280;7004;48.206;16.402;2023-03-17T01:40:35;100284.75;;;2.97;48.57
13869;BME280;7004;48.206;16.402;2023-03-17T01:43:38;100281.78;;;2.74;49.87
13869;BME280;7004;48.206;16.402;2023-03-17T01:46:24;100279.31;;;3.06;48.12
13869;BME280;7004;48.206;16.402;2023-03-17T01:54:47;100275.25;;;3.31;47.21
13869;BME280;7004;48.206;16.402;2023-03-17T01:57:34;100257.91;;;3.26;47.24
13869;BME280;7004;48.206;16.402;2023-03-17T02:02:35;100256.56;;;3.46;46.51
13869;BME280;7004;48.206;16.402;2023-03-17T02:05:06;100263.25;;;3.56;47.02
13869;BME280;7004;48.206;16.402;2023-03-17T02:07:33;100254.72;;;3.82;46.24
13869;BME280;7004;48.206;16.402;2023-03-17T02:09:59;100253.28;;;3.70;46.28
13869;BME280;7004;48.206;16.402;2023-03-17T02:12:28;100250.81;;;3.66;46.27
13869;BME280;7004;48.206;16.402;2023-03-17T02:14:56;100252.31;;;3.75;45.57
13869;BME280;7004;48.206;16.402;2023-03-17T02:17:25;100256.69;;;3.74;46.60
13869;BME280;7004;48.206;16.402;2023-03-17T02:19:52;100246.53;;;3.63;46.66
13869;BME280;7004;48.206;16.402;2023-03-17T02:22:19;100252.19;;;3.79;46.06
13869;BME280;7004;48.206;16.402;2023-03-17T02:24:57;100245.28;;;3.77;46.12
13869;BME280;7004;48.206;16.402;2023-03-17T02:27:35;100234.78;;;4.09;45.49
13869;BME280;7004;48.206;16.402;2023-03-17T02:30:06;100242.19;;;3.93;45.80
13869;BME280;7004;48.206;16.402;2023-03-17T02:32:37;100240.50;;;3.92;46.46
13869;BME280;7004;48.206;16.402;2023-03-17T02:35:05;100234.34;;;3.93;46.24
13869;BME280;7004;48.206;16.402;2023-03-17T02:37:33;100233.63;;;3.88;46.07
13869;BME280;7004;48.206;16.402;2023-03-17T02:39:59;100240.78;;;4.13;46.27
13869;BME280;7004;48.206;16.402;2023-03-17T02:42:33;100234.31;;;3.95;46.69
13869;BME280;7004;48.206;16.402;2023-03-17T02:45:00;100232.16;;;4.09;46.77
13869;BME280;7004;48.206;16.402;2023-03-17T02:47:27;100226.28;;;4.01;46.76
13869;BME280;7004;48.206;16.402;2023-03-17T02:49:53;100216.75;;;4.00;47.01
13869;BME280;7004;48.206;16.402;2023-03-17T02:52:20;100224.38;;;4.08;46.77
13869;BME280;7004;48.206;16.402;2023-03-17T02:54:46;100221.66;;;4.11;46.55
13869;BME280;7004;48.206;16.402;2023-03-17T02:57:12;100225.31;;;4.05;47.18
13869;BME280;7004;48.206;16.402;2023-03-17T02:59:39;100231.59;;;4.00;47.38
13869;BME280;7004;48.206;16.402;2023-03-17T03:02:05;100239.66;;;3.92;48.01
13869;BME280;7004;48.206;16.402;2023-03-17T03:04:31;100244.19;;;3.85;47.83
13869;BME280;7004;48.206;16.402;2023-03-17T03:06:57;100249.94;;;3.65;49.33
13869;BME280;7004;48.206;16.402;2023-03-17T03:09:24;100255.41;;;3.89;48.56
13869;BME280;7004;48.206;16.402;2023-03-17T03:11:51;100247.63;;;3.87;48.58
13869;BME280;7004;48.206;16.402;2023-03-17T03:14:17;100249.25;;;3.59;49.06
13869;BME280;7004;48.206;16.402;2023-03-17T03:16:44;100242.69;;;3.77;49.01
13869;BME280;7004;48.206;16.402;2023-03-17T03:19:11;100246.53;;;3.63;49.07
13869;BME280;7004;48.206;16.402;2023-03-17T03:21:37;100241.59;;;3.84;48.49
13869;BME280;7004;48.206;16.402;2023-03-17T03:24:05;100241.91;;;3.40;50.49
13869;BME280;7004;48.206;16.402;2023-03-17T03:26:31;100248.63;;;3.49;50.37
13869;BME280;7004;48.206;16.402;2023-03-17T03:28:57;100237.00;;;3.61;50.05
13869;BME280;7004;48.206;16.402;2023-03-17T03:31:25;100229.09;;;3.64;49.38
13869;BME280;7004;48.206;16.402;2023-03-17T03:33:52;100225.41;;;3.71;48.85
13869;BME280;7004;48.206;16.402;2023-03-17T03:36:18;100223.72;;;3.68;48.89
13869;BME280;7004;48.206;16.402;2023-03-17T03:38:45;100231.28;;;3.79;48.79
13869;BME280;7004;48.206;16.402;2023-03-17T03:41:11;100225.09;;;3.49;49.01
13869;BME280;7004;48.206;16.402;2023-03-17T03:43:37;100209.34;;;3.83;49.04
13869;BME280;7004;48.206;16.402;2023-03-17T03:46:04;100213.94;;;3.42;48.59
13869;BME280;7004;48.206;16.402;2023-03-17T03:48:30;100219.66;;;3.24;50.05
13869;BME280;7004;48.206;16.402;2023-03-17T03:50:58;100213.81;;;3.47;49.13
13869;BME280;7004;48.206;16.402;2023-03-17T03:53:25;100201.78;;;3.41;49.31
13869;BME280;7004;48.206;16.402;2023-03-17T03:55:53;100201.41;;;3.55;48.90
13869;BME280;7004;48.206;16.402;2023-03-17T03:58:20;100196.47;;;3.44;49.02
13869;BME280;7004;48.206;16.402;2023-03-17T04:00:46;100197.75;;;3.30;49.64
13869;BME280;7004;48.206;16.402;2023-03-17T04:03:16;100201.28;;;3.60;48.55
13869;BME280;7004;48.206;16.402;2023-03-17T04:05:44;100217.47;;;3.41;49.32
13869;BME280;7004;48.206;16.402;2023-03-17T04:08:17;100219.78;;;3.52;48.94
13869;BME280;7004;48.206;16.402;2023-03-17T04:10:46;100212.75;;;3.56;49.07
13869;BME280;7004;48.206;16.402;2023-03-17T04:13:22;100215.50;;;3.49;47.96
13869;BME280;7004;48.206;16.402;2023-03-17T04:15:50;100211.28;;;3.45;49.79
13869;BME280;7004;48.206;16.402;2023-03-17T04:18:24;100218.22;;;3.45;49.99
13869;BME280;7004;48.206;16.402;2023-03-17T04:20:55;100207.72;;;3.14;50.52
13869;BME280;7004;48.206;16.402;2023-03-17T04:23:25;100203.50;;;3.42;48.30
13869;BME280;7004;48.206;16.402;2023-03-17T04:25:58;100204.94;;;3.54;48.79
13869;BME280;7004;48.206;16.402;2023-03-17T04:28:30;100203.84;;;3.30;48.88
13869;BME280;7004;48.206;16.402;2023-03-17T04:30:56;100201.97;;;3.34;48.41
13869;BME280;7004;48.206;16.402;2023-03-17T04:33:23;100199.94;;;3.45;47.72
13869;BME280;7004;48.206;16.402;2023-03-17T04:35:49;100206.59;;;3.24;48.47
13869;BME280;7004;48.206;16.402;2023-03-17T04:38:16;100199.81;;;3.49;47.83
13869;BME280;7004;48.206;16.402;2023-03-17T04:40:42;100198.03;;;3.52;47.97
13869;BME280;7004;48.206;16.402;2023-03-17T04:43:08;100203.28;;;3.50;47.62
13869;BME280;7004;48.206;16.402;2023-03-17T04:45:35;100195.72;;;3.39;48.23
13869;BME280;7004;48.206;16.402;2023-03-17T04:48:02;100195.06;;;3.33;47.73
13869;BME280;7004;48.206;16.402;2023-03-17T04:50:29;100195.81;;;3.69;47.23
13869;BME280;7004;48.206;16.402;2023-03-17T04:52:55;100193.41;;;3.28;48.63
13869;BME280;7004;48.206;16.402;2023-03-17T04:55:21;100194.03;;;3.38;48.56
13869;BME280;7004;48.206;16.402;2023-03-17T04:57:48;100184.75;;;3.59;47.78
13869;BME280;7004;48.206;16.402;2023-03-17T05:00:15;100192.59;;;3.26;48.03
13869;BME280;7004;48.206;16.402;2023-03-17T05:02:41;100195.88;;;3.35;48.14
13869;BME280;7004;48.206;16.402;2023-03-17T05:05:08;100192.06;;;3.46;48.32
13869;BME280;7004;48.206;16.402;2023-03-17T05:07:36;100193.88;;;3.76;47.77
13869;BME280;7004;48.206;16.402;2023-03-17T05:10:03;100194.56;;;3.51;47.98
13869;BME280;7004;48.206;16.402;2023-03-17T05:12:30;100191.47;;;3.68;48.01
13869;BME280;7004;48.206;16.402;2023-03-17T05:14:56;100193.03;;;3.75;47.57
13869;BME280;7004;48.206;16.402;2023-03-17T05:17:23;100191.34;;;3.72;47.35
13869;BME280;7004;48.206;16.402;2023-03-17T05:19:49;100186.66;;;3.84;47.88
13869;BME280;7004;48.206;16.402;2023-03-17T05:22:17;100187.53;;;3.53;48.39
13869;BME280;7004;48.206;16.402;2023-03-17T05:24:43;100195.25;;;3.58;47.89
13869;BME280;7004;48.206;16.402;2023-03-17T05:27:10;100187.47;;;3.56;48.21
13869;BME280;7004;48.206;16.402;2023-03-17T05:29:36;100186.81;;;3.48;48.59
13869;BME280;7004;48.206;16.402;2023-03-17T05:32:03;100190.31;;;3.47;48.61
13869;BME280;7004;48.206;16.402;2023-03-17T05:34:30;100196.56;;;3.41;48.45
13869;BME280;7004;48.206;16.402;2023-03-17T05:36:56;100205.16;;;3.45;48.22
13869;BME280;7004;48.206;16.402;2023-03-17T05:39:22;100205.25;;;3.42;48.38
13869;BME280;7004;48.206;16.402;2023-03-17T05:41:48;100206.63;;;3.55;47.96
13869;BME280;7004;48.206;16.402;2023-03-17T05:44:16;100210.72;;;3.65;47.65
13869;BME280;7004;48.206;16.402;2023-03-17T05:46:42;100203.91;;;3.60;48.28
13869;BME280;7004;48.206;16.402;2023-03-17T05:49:08;100211.19;;;3.48;48.57
13869;BME280;7004;48.206;16.402;2023-03-17T05:51:34;100202.00;;;3.66;48.64
13869;BME280;7004;48.206;16.402;2023-03-17T05:54:01;100194.97;;;3.68;48.39
13869;BME280;7004;48.206;16.402;2023-03-17T05:56:27;100198.59;;;3.63;48.97
13869;BME280;7004;48.206;16.402;2023-03-17T05:58:59;100190.53;;;3.70;48.53
13869;BME280;7004;48.206;16.402;2023-03-17T06:01:27;100185.66;;;3.89;48.38
13869;BME280;7004;48.206;16.402;2023-03-17T06:03:53;100207.31;;;3.63;48.79
13869;BME280;7004;48.206;16.402;2023-03-17T06:06:20;100194.59;;;3.81;48.58
13869;BME280;7004;48.206;16.402;2023-03-17T06:08:46;100190.91;;;3.89;48.16
13869;BME280;7004;48.206;16.402;2023-03-17T06:11:12;100187.78;;;4.06;48.41
13869;BME280;7004;48.206;16.402;2023-03-17T06:13:38;100189.97;;;4.20;47.79
13869;BME280;7004;48.206;16.402;2023-03-17T06:16:05;100198.72;;;4.21;47.33
13869;BME280;7004;48.206;16.402;2023-03-17T06:18:31;100199.00;;;4.40;46.94
13869;BME280;7004;48.206;16.402;2023-03-17T06:20:57;100187.56;;;4.42;47.10
13869;BME280;7004;48.206;16.402;2023-03-17T06:23:23;100186.81;;;4.09;47.51
13869;BME280;7004;48.206;16.402;2023-03-17T06:25:49;100179.94;;;4.36;46.53
13869;BME280;7004;48.206;16.402;2023-03-17T06:28:15;100190.31;;;4.37;47.10
13869;BME280;7004;48.206;16.402;2023-03-17T06:30:41;100187.56;;;4.42;46.77
13869;BME280;7004;48.206;16.402;2023-03-17T06:33:08;100180.53;;;4.44;46.96
13869;BME280;7004;48.206;16.402;2023-03-17T06:35:35;100178.22;;;4.62;46.54
13869;BME280;7004;48.206;16.402;2023-03-17T06:38:02;100184.03;;;4.43;46.94
13869;BME280;7004;48.206;16.402;2023-03-17T06:40:28;100180.19;;;4.55;46.14
13869;BME280;7004;48.206;16.402;2023-03-17T06:42:55;100181.38;;;4.73;46.00
13869;BME280;7004;48.206;16.402;2023-03-17T06:45:21;100184.59;;;4.81;46.43
13869;BME280;7004;48.206;16.402;2023-03-17T06:47:47;100187.22;;;5.08;45.53
13869;BME280;7004;48.206;16.402;2023-03-17T06:50:14;100187.69;;;4.94;45.67
13869;BME280;7004;48.206;16.402;2023-03-17T06:52:41;100188.69;;;4.90;46.22
13869;BME280;7004;48.206;16.402;2023-03-17T06:55:09;100198.28;;;5.16;45.22
13869;BME280;7004;48.206;16.402;2023-03-17T06:57:35;100191.06;;;5.24;44.54
13869;BME280;7004;48.206;16.402;2023-03-17T07:00:04;100194.75;;;5.43;44.27
13869;BME280;7004;48.206;16.402;2023-03-17T07:02:32;100191.03;;;5.49;43.48
13869;BME280;7004;48.206;16.402;2023-03-17T07:04:59;100179.25;;;6.09;42.82
13869;BME280;7004;48.206;16.402;2023-03-17T07:07:26;100182.25;;;6.00;43.31
13869;BME280;7004;48.206;16.402;2023-03-17T07:09:53;100180.13;;;6.33;42.49
13869;BME280;7004;48.206;16.402;2023-03-17T07:12:19;100185.44;;;6.54;41.48
13869;BME280;7004;48.206;16.402;2023-03-17T07:14:46;100173.81;;;7.24;39.72
13869;BME280;7004;48.206;16.402;2023-03-17T07:17:13;100181.56;;;6.85;40.05
13869;BME280;7004;48.206;16.402;2023-03-17T07:19:40;100163.16;;;7.27;39.26
13869;BME280;7004;48.206;16.402;2023-03-17T07:22:08;100181.81;;;7.62;37.90
13869;BME280;7004;48.206;16.402;2023-03-17T07:24:34;100187.34;;;7.35;38.84
13869;BME280;7004;48.206;16.402;2023-03-17T07:27:00;100183.47;;;7.23;38.38
13869;BME280;7004;48.206;16.402;2023-03-17T07:29:26;100189.03;;;7.57;38.45
13869;BME280;7004;48.206;16.402;2023-03-17T07:31:53;100181.50;;;7.88;36.84
13869;BME280;7004;48.206;16.402;2023-03-17T07:34:20;100178.25;;;8.21;36.48
13869;BME280;7004;48.206;16.402;2023-03-17T07:36:47;100188.56;;;8.83;36.01
13869;BME280;7004;48.206;16.402;2023-03-17T07:39:13;100173.34;;;7.95;36.63
13869;BME280;7004;48.206;16.402;2023-03-17T07:41:40;100185.81;;;8.10;36.17
13869;BME280;7004;48.206;16.402;2023-03-17T07:44:07;100158.09;;;9.29;34.64
13869;BME280;7004;48.206;16.402;2023-03-17T07:46:34;100157.00;;;9.51;33.91
13869;BME280;7004;48.206;16.402;2023-03-17T07:49:00;100151.13;;;9.61;33.89
13869;BME280;7004;48.206;16.402;2023-03-17T07:51:26;100144.28;;;9.75;33.55
13869;BME280;7004;48.206;16.402;2023-03-17T07:53:53;100154.59;;;9.46;33.62
13869;BME280;7004;48.206;16.402;2023-03-17T07:56:29;100159.66;;;9.16;33.25
13869;BME280;7004;48.206;16.402;2023-03-17T07:58:56;100157.94;;;8.61;34.87
13869;BME280;7004;48.206;16.402;2023-03-17T08:01:25;100148.78;;;9.05;34.09
13869;BME280;7004;48.206;16.402;2023-03-17T08:03:52;100171.44;;;9.09;34.37
13869;BME280;7004;48.206;16.402;2023-03-17T08:06:18;100141.97;;;9.01;33.51
13869;BME280;7004;48.206;16.402;2023-03-17T08:08:44;100142.06;;;9.16;33.27
13869;BME280;7004;48.206;16.402;2023-03-17T08:11:11;100151.75;;;9.67;32.86
13869;BME280;7004;48.206;16.402;2023-03-17T08:13:37;100161.19;;;8.85;34.02
13869;BME280;7004;48.206;16.402;2023-03-17T08:16:04;100139.41;;;9.16;33.95
13869;BME280;7004;48.206;16.402;2023-03-17T08:18:30;100139.47;;;9.15;33.73
13869;BME280;7004;48.206;16.402;2023-03-17T08:20:56;100131.88;;;9.26;33.09
13869;BME280;7004;48.206;16.402;2023-03-17T08:23:23;100134.88;;;9.36;33.18
13869;BME280;7004;48.206;16.402;2023-03-17T08:25:56;100134.47;;;9.61;32.94
13869;BME280;7004;48.206;16.402;2023-03-17T08:28:22;100148.06;;;9.87;32.79
13869;BME280;7004;48.206;16.402;2023-03-17T08:30:48;100144.97;;;9.45;32.94
13869;BME280;7004;48.206;16.402;2023-03-17T08:33:15;100132.59;;;9.63;32.91
13869;BME280;7004;48.206;16.402;2023-03-17T08:35:42;100130.44;;;9.36;33.06
13869;BME280;7004;48.206;16.402;2023-03-17T08:38:09;100134.00;;;9.70;32.83
13869;BME280;7004;48.206;16.402;2023-03-17T08:40:37;100136.34;;;9.41;33.31
13869;BME280;7004;48.206;16.402;2023-03-17T08:43:03;100136.53;;;9.72;32.52
13869;BME280;7004;48.206;16.402;2023-03-17T08:45:31;100152.19;;;9.75;32.68
13869;BME280;7004;48.206;16.402;2023-03-17T08:47:57;100144.97;;;9.45;33.57
13869;BME280;7004;48.206;16.402;2023-03-17T08:50:24;100128.41;;;10.24;32.58
13869;BME280;7004;48.206;16.402;2023-03-17T08:52:51;100124.91;;;10.07;32.61
13869;BME280;7004;48.206;16.402;2023-03-17T08:55:19;100138.19;;;10.22;32.04
13869;BME280;7004;48.206;16.402;2023-03-17T08:57:45;100142.56;;;10.07;32.47
13869;BME280;7004;48.206;16.402;2023-03-17T09:00:17;100131.38;;;10.02;32.49
13869;BME280;7004;48.206;16.402;2023-03-17T09:02:46;100128.16;;;10.13;32.44
13869;BME280;7004;48.206;16.402;2023-03-17T09:05:15;100144.91;;;10.12;32.66
13869;BME280;7004;48.206;16.402;2023-03-17T09:07:41;100125.06;;;9.89;33.26
13869;BME280;7004;48.206;16.402;2023-03-17T09:10:09;100133.28;;;10.47;32.42
13869;BME280;7004;48.206;16.402;2023-03-17T09:12:36;100139.38;;;10.00;32.84
13869;BME280;7004;48.206;16.402;2023-03-17T09:15:04;100155.88;;;10.37;32.66
13869;BME280;7004;48.206;16.402;2023-03-17T09:17:30;100129.91;;;9.47;33.73
13869;BME280;7004;48.206;16.402;2023-03-17T09:19:56;100160.22;;;9.73;32.97
13869;BME280;7004;48.206;16.402;2023-03-17T09:22:24;100154.47;;;10.14;32.53
13869;BME280;7004;48.206;16.402;2023-03-17T09:24:50;100144.69;;;9.67;33.43
13869;BME280;7004;48.206;16.402;2023-03-17T09:27:17;100155.09;;;9.70;33.64
13869;BME280;7004;48.206;16.402;2023-03-17T09:29:44;100158.84;;;9.49;33.73
13869;BME280;7004;48.206;16.402;2023-03-17T09:32:10;100153.78;;;10.11;32.93
13869;BME280;7004;48.206;16.402;2023-03-17T09:34:38;100160.19;;;9.40;33.17
13869;BME280;7004;48.206;16.402;2023-03-17T09:37:05;100151.34;;;9.06;33.71
13869;BME280;7004;48.206;16.402;2023-03-17T09:39:31;100158.03;;;9.13;33.94
13869;BME280;7004;48.206;16.402;2023-03-17T09:42:08;100143.63;;;9.54;33.32
13869;BME280;7004;48.206;16.402;2023-03-17T09:50:18;100120.03;;;9.84;33.08
13869;BME280;7004;48.206;16.402;2023-03-17T09:52:48;100142.19;;;9.97;32.76
13869;BME280;7004;48.206;16.402;2023-03-17T09:55:28;100139.41;;;9.67;33.05
13869;BME280;7004;48.206;16.402;2023-03-17T09:57:56;100122.34;;;10.22;32.15
13869;BME280;7004;48.206;16.402;2023-03-17T10:00:26;100117.06;;;10.06;32.76
13869;BME280;7004;48.206;16.402;2023-03-17T10:02:57;100112.78;;;10.03;32.57
13869;BME280;7004;48.206;16.402;2023-03-17T10:05:30;100126.06;;;9.70;32.09
13869;BME280;7004;48.206;16.402;2023-03-17T10:08:31;100107.44;;;9.89;31.65
13869;BME280;7004;48.206;16.402;2023-03-17T10:16:57;100084.19;;;11.04;31.08
13869;BME280;7004;48.206;16.402;2023-03-17T10:19:37;100097.19;;;10.62;30.56
13869;BME280;7004;48.206;16.402;2023-03-17T10:25:23;100109.88;;;11.02;30.00
13869;BME280;7004;48.206;16.402;2023-03-17T10:28:20;100093.44;;;12.26;28.96
13869;BME280;7004;48.206;16.402;2023-03-17T10:30:48;100087.34;;;10.80;30.65
13869;BME280;7004;48.206;16.402;2023-03-17T10:33:14;100081.94;;;10.98;30.30
13869;BME280;7004;48.206;16.402;2023-03-17T10:35:41;100084.91;;;11.50;29.31
13869;BME280;7004;48.206;16.402;2023-03-17T10:38:20;100082.25;;;11.36;29.83
13869;BME280;7004;48.206;16.402;2023-03-17T10:40:59;100078.75;;;12.07;28.55
13869;BME280;7004;48.206;16.402;2023-03-17T10:43:29;100075.72;;;11.99;28.74
13869;BME280;7004;48.206;16.402;2023-03-17T10:46:08;100071.75;;;12.33;27.92
13869;BME280;7004;48.206;16.402;2023-03-17T10:48:40;100071.16;;;12.82;27.64
13869;BME280;7004;48.206;16.402;2023-03-17T10:51:09;100075.19;;;12.21;27.85
13869;BME280;7004;48.206;16.402;2023-03-17T10:53:39;100069.63;;;12.11;27.42
13869;BME280;7004;48.206;16.402;2023-03-17T10:56:24;100064.69;;;12.46;26.86
13869;BME280;7004;48.206;16.402;2023-03-17T10:58:52;100077.84;;;12.21;26.83
13869;BME280;7004;48.206;16.402;2023-03-17T11:01:28;100064.44;;;12.10;27.09
13869;BME280;7004;48.206;16.402;2023-03-17T11:03:55;100069.22;;;12.72;26.39
13869;BME280;7004;48.206;16.402;2023-03-17T11:06:57;100075.72;;;12.40;26.51
13869;BME280;7004;48.206;16.402;2023-03-17T11:09:24;100053.72;;;12.78;26.00
13869;BME280;7004;48.206;16.402;2023-03-17T11:12:06;100055.97;;;12.44;26.10
13869;BME280;7004;48.206;16.402;2023-03-17T11:14:33;100068.50;;;12.01;26.09
13869;BME280;7004;48.206;16.402;2023-03-17T11:17:41;100048.03;;;13.23;25.37
13869;BME280;7004;48.206;16.402;2023-03-17T11:23:17;100051.34;;;13.01;24.80
13869;BME280;7004;48.206;16.402;2023-03-17T11:26:00;100041.41;;;13.80;24.48
13869;BME280;7004;48.206;16.402;2023-03-17T11:28:38;100046.06;;;13.26;25.74
13869;BME280;7004;48.206;16.402;2023-03-17T11:31:33;100045.56;;;12.81;24.62
13869;BME280;7004;48.206;16.402;2023-03-17T11:34:08;100037.84;;;12.38;25.34
13869;BME280;7004;48.206;16.402;2023-03-17T11:39:53;100041.72;;;12.60;25.68
13869;BME280;7004;48.206;16.402;2023-03-17T11:46:17;100033.06;;;13.73;24.67
13869;BME280;7004;48.206;16.402;2023-03-17T11:49:12;100021.19;;;13.53;25.52
13869;BME280;7004;48.206;16.402;2023-03-17T11:52:04;100016.84;;;13.14;25.58
13869;BME280;7004;48.206;16.402;2023-03-17T11:55:11;100029.16;;;13.15;25.07
13869;BME280;7004;48.206;16.402;2023-03-17T11:57:51;99996.25;;;13.43;24.63
13869;BME280;7004;48.206;16.402;2023-03-17T12:00:38;99996.44;;;13.89;24.71
13869;BME280;7004;48.206;16.402;2023-03-17T12:06:11;99982.69;;;13.71;25.30
13869;BME280;7004;48.206;16.402;2023-03-17T12:09:08;99977.38;;;13.71;25.26
13869;BME280;7004;48.206;16.402;2023-03-17T12:11:42;99974.56;;;13.86;24.86
13869;BME280;7004;48.206;16.402;2023-03-17T12:14:27;99994.28;;;13.70;23.86
13869;BME280;7004;48.206;16.402;2023-03-17T12:17:19;99973.69;;;14.33;23.65
13869;BME280;7004;48.206;16.402;2023-03-17T12:20:32;99972.63;;;14.36;23.73
13869;BME280;7004;48.206;16.402;2023-03-17T12:23:37;99975.97;;;13.16;24.69
13869;BME280;7004;48.206;16.402;2023-03-17T12:26:35;99973.28;;;13.54;23.84
13869;BME280;7004;48.206;16.402;2023-03-17T12:31:38;99980.72;;;13.62;23.99
13869;BME280;7004;48.206;16.402;2023-03-17T12:36:59;99947.13;;;13.85;23.49
13869;BME280;7004;48.206;16.402;2023-03-17T12:39:33;99937.44;;;13.23;23.71
13869;BME280;7004;48.206;16.402;2023-03-17T12:53:41;99929.47;;;14.32;22.87
13869;BME280;7004;48.206;16.402;2023-03-17T12:56:28;99920.66;;;14.90;22.08
13869;BME280;7004;48.206;16.402;2023-03-17T12:59:08;99919.16;;;14.16;22.43
13869;BME280;7004;48.206;16.402;2023-03-17T13:20:43;99898.28;;;13.51;22.67
13869;BME280;7004;48.206;16.402;2023-03-17T13:38:31;99889.06;;;13.92;23.10
13869;BME280;7004;48.206;16.402;2023-03-17T13:41:30;99876.69;;;13.80;23.00
13869;BME280;7004;48.206;16.402;2023-03-17T13:44:28;99871.88;;;14.09;22.16
13869;BME280;7004;48.206;16.402;2023-03-17T13:50:16;99870.28;;;14.06;21.72
13869;BME280;7004;48.206;16.402;2023-03-17T13:53:10;99862.41;;;13.69;22.71
13869;BME280;7004;48.206;16.402;2023-03-17T13:55:41;99865.28;;;13.66;22.82
13869;BME280;7004;48.206;16.402;2023-03-17T14:00:43;99846.41;;;14.17;22.59
13869;BME280;7004;48.206;16.402;2023-03-17T14:03:29;99842.44;;;13.03;22.99
13869;BME280;7004;48.206;16.402;2023-03-17T14:06:02;99853.56;;;13.93;22.69
13869;BME280;7004;48.206;16.402;2023-03-17T14:08:36;99857.97;;;13.70;23.16
13869;BME280;7004;48.206;16.402;2023-03-17T14:11:32;99839.88;;;14.22;22.28
13869;BME280;7004;48.206;16.402;2023-03-17T14:15:10;99849.63;;;13.98;22.62
13869;BME280;7004;48.206;16.402;2023-03-17T14:17:15;99851.28;;;13.40;22.84
13869;BME280;7004;48.206;16.402;2023-03-17T14:22:43;99835.81;;;13.21;23.30
13869;BME280;7004;48.206;16.402;2023-03-17T14:25:22;99837.19;;;13.27;23.47
13869;BME280;7004;48.206;16.402;2023-03-17T14:27:55;99839.84;;;13.51;22.68
13869;BME280;7004;48.206;16.402;2023-03-17T14:30:29;99845.91;;;12.79;22.77
13869;BME280;7004;48.206;16.402;2023-03-17T14:33:03;99853.44;;;13.22;22.44
13869;BME280;7004;48.206;16.402;2023-03-17T14:35:36;99836.81;;;13.07;23.02
13869;BME280;7004;48.206;16.402;2023-03-17T14:38:17;99836.22;;;13.28;22.61
13869;BME280;7004;48.206;16.402;2023-03-17T14:40:45;99835.13;;;12.94;23.21
13869;BME280;7004;48.206;16.402;2023-03-17T14:43:11;99841.28;;;12.94;23.49
13869;BME280;7004;48.206;16.402;2023-03-17T14:46:13;99832.25;;;12.97;23.32
13869;BME280;7004;48.206;16.402;2023-03-17T14:48:41;99831.84;;;13.03;23.38
13869;BME280;7004;48.206;16.402;2023-03-17T14:54:18;99816.38;;;12.84;23.38
13869;BME280;7004;48.206;16.402;2023-03-17T14:57:03;99815.81;;;12.92;23.49